sensor_id;sensor_type;location;lat;lon;timestamp;temperature;humidity
25732;DHT22;13585;50.864;4.406;2023-06-24T00:00:42;29.50;48.70
25732;DHT22;13585;50.864;4.406;2023-06-24T00:03:08;29.50;48.70
25732;DHT22;13585;50.864;4.406;2023-06-24T00:05:33;29.50;48.60
25732;DHT22;13585;50.864;4.406;2023-06-24T00:07:59;29.50;48.60
25732;DHT22;13585;50.864;4.406;2023-06-24T00:10:28;29.50;48.50
25732;DHT22;13585;50.864;4.406;2023-06-24T00:12:55;29.50;48.50
25732;DHT22;13585;50.864;4.406;2023-06-24T00:15:21;29.50;48.40
25732;DHT22;13585;50.864;4.406;2023-06-24T00:17:46;29.50;48.30
25732;DHT22;13585;50.864;4.406;2023-06-24T00:20:14;29.40;48.30
25732;DHT22;13585;50.864;4.406;2023-06-24T00:22:42;29.50;48.20
25732;DHT22;13585;50.864;4.406;2023-06-24T00:25:17;29.50;48.20
25732;DHT22;13585;50.864;4.406;2023-06-24T00:27:46;29.50;48.10
25732;DHT22;13585;50.864;4.406;2023-06-24T00:30:17;29.50;48.10
25732;DHT22;13585;50.864;4.406;2023-06-24T00:32:42;29.50;48.10
25732;DHT22;13585;50.864;4.406;2023-06-24T00:35:09;29.50;47.90
25732;DHT22;13585;50.864;4.406;2023-06-24T00:37:36;29.50;47.80
25732;DHT22;13585;50.864;4.406;2023-06-24T00:40:01;29.50;47.70
25732;DHT22;13585;50.864;4.406;2023-06-24T00:42:29;29.50;47.70
25732;DHT22;13585;50.864;4.406;2023-06-24T00:44:54;29.40;47.50
25732;DHT22;13585;50.864;4.406;2023-06-24T00:47:20;29.40;47.50
25732;DHT22;13585;50.864;4.406;2023-06-24T00:49:49;29.50;47.50
25732;DHT22;13585;50.864;4.406;2023-06-24T00:52:16;29.50;47.50
25732;DHT22;13585;50.864;4.406;2023-06-24T00:54:45;29.50;47.40
25732;DHT22;13585;50.864;4.406;2023-06-24T00:57:10;29.50;47.40
25732;DHT22;13585;50.864;4.406;2023-06-24T00:59:38;29.40;47.20
25732;DHT22;13585;50.864;4.406;2023-06-24T01:02:04;29.40;47.10
25732;DHT22;13585;50.864;4.406;2023-06-24T01:04:31;29.40;47.10
25732;DHT22;13585;50.864;4.406;2023-06-24T01:06:59;29.40;47.00
25732;DHT22;13585;50.864;4.406;2023-06-24T01:09:25;29.50;47.10
25732;DHT22;13585;50.864;4.406;2023-06-24T01:11:54;29.50;47.00
25732;DHT22;13585;50.864;4.406;2023-06-24T01:14:20;29.50;46.90
25732;DHT22;13585;50.864;4.406;2023-06-24T01:19:54;29.40;46.90
25732;DHT22;13585;50.864;4.406;2023-06-24T01:33:59;29.40;46.60
25732;DHT22;13585;50.864;4.406;2023-06-24T01:36:30;29.40;46.60
25732;DHT22;13585;50.864;4.406;2023-06-24T01:39:07;29.40;46.50
25732;DHT22;13585;50.864;4.406;2023-06-24T01:41:51;29.40;46.50
25732;DHT22;13585;50.864;4.406;2023-06-24T01:44:22;29.40;46.60
25732;DHT22;13585;50.864;4.406;2023-06-24T01:46:50;29.40;46.50
25732;DHT22;13585;50.864;4.406;2023-06-24T01:49:18;29.40;46.50
25732;DHT22;13585;50.864;4.406;2023-06-24T01:51:46;29.40;46.50
25732;DHT22;13585;50.864;4.406;2023-06-24T01:54:15;29.40;46.40
25732;DHT22;13585;50.864;4.406;2023-06-24T01:56:45;29.40;46.40
25732;DHT22;13585;50.864;4.406;2023-06-24T01:59:14;29.40;46.40
25732;DHT22;13585;50.864;4.406;2023-06-24T02:01:44;29.40;46.40
25732;DHT22;13585;50.864;4.406;2023-06-24T02:04:11;29.40;46.30
25732;DHT22;13585;50.864;4.406;2023-06-24T02:06:40;29.40;46.30
25732;DHT22;13585;50.864;4.406;2023-06-24T02:09:10;29.40;46.30
25732;DHT22;13585;50.864;4.406;2023-06-24T02:11:39;29.40;46.20
25732;DHT22;13585;50.864;4.406;2023-06-24T02:14:06;29.40;46.20
25732;DHT22;13585;50.864;4.406;2023-06-24T02:16:33;29.40;46.20
25732;DHT22;13585;50.864;4.406;2023-06-24T02:19:00;29.40;46.20
25732;DHT22;13585;50.864;4.406;2023-06-24T02:21:28;29.40;46.20
25732;DHT22;13585;50.864;4.406;2023-06-24T02:23:54;29.30;46.10
25732;DHT22;13585;50.864;4.406;2023-06-24T02:26:21;29.40;46.10
25732;DHT22;13585;50.864;4.406;2023-06-24T02:28:57;29.40;46.10
25732;DHT22;13585;50.864;4.406;2023-06-24T02:31:23;29.30;46.10
25732;DHT22;13585;50.864;4.406;2023-06-24T02:33:48;29.40;46.10
25732;DHT22;13585;50.864;4.406;2023-06-24T02:36:14;29.30;46.00
25732;DHT22;13585;50.864;4.406;2023-06-24T02:38:43;29.30;45.90
25732;DHT22;13585;50.864;4.406;2023-06-24T02:41:09;29.30;45.90
25732;DHT22;13585;50.864;4.406;2023-06-24T02:43:35;29.30;45.90
25732;DHT22;13585;50.864;4.406;2023-06-24T02:46:02;29.30;45.90
25732;DHT22;13585;50.864;4.406;2023-06-24T02:48:30;29.30;45.90
25732;DHT22;13585;50.864;4.406;2023-06-24T02:50:59;29.30;45.90
25732;DHT22;13585;50.864;4.406;2023-06-24T02:53:26;29.30;45.90
25732;DHT22;13585;50.864;4.406;2023-06-24T02:55:54;29.30;45.90
25732;DHT22;13585;50.864;4.406;2023-06-24T02:58:23;29.30;45.80
25732;DHT22;13585;50.864;4.406;2023-06-24T03:00:49;29.30;45.80
25732;DHT22;13585;50.864;4.406;2023-06-24T03:03:16;29.30;45.80
25732;DHT22;13585;50.864;4.406;2023-06-24T03:05:42;29.20;45.70
25732;DHT22;13585;50.864;4.406;2023-06-24T03:08:10;29.30;45.80
25732;DHT22;13585;50.864;4.406;2023-06-24T03:10:36;29.20;45.70
25732;DHT22;13585;50.864;4.406;2023-06-24T03:13:03;29.30;45.70
25732;DHT22;13585;50.864;4.406;2023-06-24T03:15:28;29.30;45.70
25732;DHT22;13585;50.864;4.406;2023-06-24T03:17:54;29.30;45.60
25732;DHT22;13585;50.864;4.406;2023-06-24T03:20:20;29.30;45.60
25732;DHT22;13585;50.864;4.406;2023-06-24T03:22:46;29.20;45.60
25732;DHT22;13585;50.864;4.406;2023-06-24T03:25:12;29.20;45.80
25732;DHT22;13585;50.864;4.406;2023-06-24T03:27:41;29.20;45.50
25732;DHT22;13585;50.864;4.406;2023-06-24T03:30:07;29.20;45.50
25732;DHT22;13585;50.864;4.406;2023-06-24T03:32:32;29.20;45.50
25732;DHT22;13585;50.864;4.406;2023-06-24T03:35:02;29.20;45.50
25732;DHT22;13585;50.864;4.406;2023-06-24T03:37:28;29.20;45.40
25732;DHT22;13585;50.864;4.406;2023-06-24T03:39:54;29.20;45.40
25732;DHT22;13585;50.864;4.406;2023-06-24T03:42:20;29.20;45.40
25732;DHT22;13585;50.864;4.406;2023-06-24T03:44:49;29.20;45.30
25732;DHT22;13585;50.864;4.406;2023-06-24T03:47:17;29.20;45.30
25732;DHT22;13585;50.864;4.406;2023-06-24T03:49:43;29.20;45.40
25732;DHT22;13585;50.864;4.406;2023-06-24T03:52:08;29.20;45.40
25732;DHT22;13585;50.864;4.406;2023-06-24T03:54:34;29.20;45.40
25732;DHT22;13585;50.864;4.406;2023-06-24T03:57:00;29.20;45.30
25732;DHT22;13585;50.864;4.406;2023-06-24T03:59:25;29.20;45.30
25732;DHT22;13585;50.864;4.406;2023-06-24T04:01:51;29.20;45.40
25732;DHT22;13585;50.864;4.406;2023-06-24T04:04:19;29.20;45.40
25732;DHT22;13585;50.864;4.406;2023-06-24T04:06:45;29.10;45.30
25732;DHT22;13585;50.864;4.406;2023-06-24T04:09:11;29.20;45.30
25732;DHT22;13585;50.864;4.406;2023-06-24T04:11:36;29.20;45.30
25732;DHT22;13585;50.864;4.406;2023-06-24T04:14:02;29.20;45.40
25732;DHT22;13585;50.864;4.406;2023-06-24T04:16:32;29.20;45.40
25732;DHT22;13585;50.864;4.406;2023-06-24T04:18:57;29.20;45.30
25732;DHT22;13585;50.864;4.406;2023-06-24T04:21:23;29.20;45.30
25732;DHT22;13585;50.864;4.406;2023-06-24T04:23:49;29.20;45.30
25732;DHT22;13585;50.864;4.406;2023-06-24T04:26:14;29.20;45.20
25732;DHT22;13585;50.864;4.406;2023-06-24T04:28:42;29.20;45.20
25732;DHT22;13585;50.864;4.406;2023-06-24T04:31:08;29.20;45.20
25732;DHT22;13585;50.864;4.406;2023-06-24T04:33:34;29.20;45.20
25732;DHT22;13585;50.864;4.406;2023-06-24T04:35:59;29.20;45.20
25732;DHT22;13585;50.864;4.406;2023-06-24T04:38:25;29.20;45.20
25732;DHT22;13585;50.864;4.406;2023-06-24T04:40:51;29.10;45.10
25732;DHT22;13585;50.864;4.406;2023-06-24T04:43:16;29.20;45.20
25732;DHT22;13585;50.864;4.406;2023-06-24T04:45:42;29.10;45.10
25732;DHT22;13585;50.864;4.406;2023-06-24T04:48:08;29.10;45.10
25732;DHT22;13585;50.864;4.406;2023-06-24T04:50:33;29.20;45.20
25732;DHT22;13585;50.864;4.406;2023-06-24T04:52:59;29.10;45.10
25732;DHT22;13585;50.864;4.406;2023-06-24T04:55:27;29.20;45.20
25732;DHT22;13585;50.864;4.406;2023-06-24T04:57:55;29.20;45.20
25732;DHT22;13585;50.864;4.406;2023-06-24T05:00:20;29.20;45.10
25732;DHT22;13585;50.864;4.406;2023-06-24T05:03:03;29.20;45.20
25732;DHT22;13585;50.864;4.406;2023-06-24T05:05:29;29.10;45.30
25732;DHT22;13585;50.864;4.406;2023-06-24T05:07:54;29.20;45.20
25732;DHT22;13585;50.864;4.406;2023-06-24T05:10:20;29.20;45.20
25732;DHT22;13585;50.864;4.406;2023-06-24T05:12:46;29.20;45.30
25732;DHT22;13585;50.864;4.406;2023-06-24T05:15:11;29.20;45.50
25732;DHT22;13585;50.864;4.406;2023-06-24T05:17:37;29.20;45.30
25732;DHT22;13585;50.864;4.406;2023-06-24T05:20:03;29.20;45.30
25732;DHT22;13585;50.864;4.406;2023-06-24T05:22:29;29.20;45.40
25732;DHT22;13585;50.864;4.406;2023-06-24T05:24:55;29.20;45.40
25732;DHT22;13585;50.864;4.406;2023-06-24T05:27:20;29.20;45.40
25732;DHT22;13585;50.864;4.406;2023-06-24T05:29:46;29.20;45.40
25732;DHT22;13585;50.864;4.406;2023-06-24T05:32:12;29.20;45.40
25732;DHT22;13585;50.864;4.406;2023-06-24T05:34:38;29.20;45.50
25732;DHT22;13585;50.864;4.406;2023-06-24T05:37:04;29.20;45.50
25732;DHT22;13585;50.864;4.406;2023-06-24T05:39:30;29.20;45.50
25732;DHT22;13585;50.864;4.406;2023-06-24T05:41:56;29.20;45.50
25732;DHT22;13585;50.864;4.406;2023-06-24T05:44:22;29.20;45.50
25732;DHT22;13585;50.864;4.406;2023-06-24T05:46:48;29.10;45.60
25732;DHT22;13585;50.864;4.406;2023-06-24T05:49:13;29.20;45.60
25732;DHT22;13585;50.864;4.406;2023-06-24T05:51:39;29.20;45.60
25732;DHT22;13585;50.864;4.406;2023-06-24T05:54:05;29.20;45.70
25732;DHT22;13585;50.864;4.406;2023-06-24T05:56:32;29.20;45.70
25732;DHT22;13585;50.864;4.406;2023-06-24T05:58:57;29.20;45.70
25732;DHT22;13585;50.864;4.406;2023-06-24T06:01:23;29.20;45.70
25732;DHT22;13585;50.864;4.406;2023-06-24T06:03:49;29.20;45.70
25732;DHT22;13585;50.864;4.406;2023-06-24T06:06:14;29.20;45.70
25732;DHT22;13585;50.864;4.406;2023-06-24T06:08:40;29.20;45.70
25732;DHT22;13585;50.864;4.406;2023-06-24T06:11:06;29.10;45.80
25732;DHT22;13585;50.864;4.406;2023-06-24T06:13:35;29.20;45.80
25732;DHT22;13585;50.864;4.406;2023-06-24T06:16:03;29.20;45.90
25732;DHT22;13585;50.864;4.406;2023-06-24T06:18:29;29.20;46.50
25732;DHT22;13585;50.864;4.406;2023-06-24T06:21:01;29.20;46.00
25732;DHT22;13585;50.864;4.406;2023-06-24T06:23:29;29.20;46.00
25732;DHT22;13585;50.864;4.406;2023-06-24T06:25:55;29.20;46.10
25732;DHT22;13585;50.864;4.406;2023-06-24T06:28:21;29.20;46.10
25732;DHT22;13585;50.864;4.406;2023-06-24T06:30:46;29.20;46.20
25732;DHT22;13585;50.864;4.406;2023-06-24T06:33:12;29.20;46.20
25732;DHT22;13585;50.864;4.406;2023-06-24T06:35:56;29.20;45.90
25732;DHT22;13585;50.864;4.406;2023-06-24T06:38:25;29.20;45.90
25732;DHT22;13585;50.864;4.406;2023-06-24T06:40:53;29.20;45.70
25732;DHT22;13585;50.864;4.406;2023-06-24T06:43:21;29.20;45.50
25732;DHT22;13585;50.864;4.406;2023-06-24T06:45:52;29.20;45.40
25732;DHT22;13585;50.864;4.406;2023-06-24T06:48:18;29.20;45.50
25732;DHT22;13585;50.864;4.406;2023-06-24T06:50:47;29.30;45.40
25732;DHT22;13585;50.864;4.406;2023-06-24T06:53:13;29.20;45.10
25732;DHT22;13585;50.864;4.406;2023-06-24T06:55:39;29.20;45.10
25732;DHT22;13585;50.864;4.406;2023-06-24T06:58:05;29.30;45.20
25732;DHT22;13585;50.864;4.406;2023-06-24T07:00:30;29.30;44.90
25732;DHT22;13585;50.864;4.406;2023-06-24T07:03:02;29.30;44.80
25732;DHT22;13585;50.864;4.406;2023-06-24T07:05:28;29.30;44.70
25732;DHT22;13585;50.864;4.406;2023-06-24T07:07:54;29.30;44.60
25732;DHT22;13585;50.864;4.406;2023-06-24T07:10:19;29.30;45.00
25732;DHT22;13585;50.864;4.406;2023-06-24T07:12:45;29.30;45.00
25732;DHT22;13585;50.864;4.406;2023-06-24T07:15:11;29.20;44.80
25732;DHT22;13585;50.864;4.406;2023-06-24T07:17:37;29.30;45.00
25732;DHT22;13585;50.864;4.406;2023-06-24T07:20:03;29.30;45.00
25732;DHT22;13585;50.864;4.406;2023-06-24T07:22:28;29.20;44.90
25732;DHT22;13585;50.864;4.406;2023-06-24T07:24:56;29.30;44.80
25732;DHT22;13585;50.864;4.406;2023-06-24T07:27:22;29.30;44.70
25732;DHT22;13585;50.864;4.406;2023-06-24T07:30:11;29.30;44.70
25732;DHT22;13585;50.864;4.406;2023-06-24T07:32:37;29.20;44.70
25732;DHT22;13585;50.864;4.406;2023-06-24T07:35:03;29.30;45.00
25732;DHT22;13585;50.864;4.406;2023-06-24T07:37:28;29.20;44.70
25732;DHT22;13585;50.864;4.406;2023-06-24T07:39:54;29.30;44.70
25732;DHT22;13585;50.864;4.406;2023-06-24T07:42:23;29.20;44.50
25732;DHT22;13585;50.864;4.406;2023-06-24T07:44:49;29.20;44.60
25732;DHT22;13585;50.864;4.406;2023-06-24T07:47:17;29.30;44.60
25732;DHT22;13585;50.864;4.406;2023-06-24T07:49:44;29.30;44.70
25732;DHT22;13585;50.864;4.406;2023-06-24T07:52:09;29.30;44.80
25732;DHT22;13585;50.864;4.406;2023-06-24T07:54:38;29.30;45.10
25732;DHT22;13585;50.864;4.406;2023-06-24T07:57:03;29.20;45.00
25732;DHT22;13585;50.864;4.406;2023-06-24T07:59:29;29.30;45.20
25732;DHT22;13585;50.864;4.406;2023-06-24T08:01:55;29.30;45.20
25732;DHT22;13585;50.864;4.406;2023-06-24T08:04:21;29.20;45.00
25732;DHT22;13585;50.864;4.406;2023-06-24T08:06:46;29.30;45.10
25732;DHT22;13585;50.864;4.406;2023-06-24T08:09:12;29.30;44.80
25732;DHT22;13585;50.864;4.406;2023-06-24T08:11:37;29.30;44.90
25732;DHT22;13585;50.864;4.406;2023-06-24T08:14:03;29.30;45.00
25732;DHT22;13585;50.864;4.406;2023-06-24T08:16:29;29.30;44.90
25732;DHT22;13585;50.864;4.406;2023-06-24T08:18:55;29.30;44.90
25732;DHT22;13585;50.864;4.406;2023-06-24T08:21:24;29.30;45.00
25732;DHT22;13585;50.864;4.406;2023-06-24T08:23:49;29.30;45.10
25732;DHT22;13585;50.864;4.406;2023-06-24T08:26:16;29.30;45.50
25732;DHT22;13585;50.864;4.406;2023-06-24T08:28:41;29.30;44.90
25732;DHT22;13585;50.864;4.406;2023-06-24T08:31:10;29.20;44.60
25732;DHT22;13585;50.864;4.406;2023-06-24T08:33:35;29.20;44.60
25732;DHT22;13585;50.864;4.406;2023-06-24T08:36:04;29.20;44.60
25732;DHT22;13585;50.864;4.406;2023-06-24T08:38:53;29.20;44.50
25732;DHT22;13585;50.864;4.406;2023-06-24T08:41:19;29.10;44.70
25732;DHT22;13585;50.864;4.406;2023-06-24T08:43:45;29.20;44.50
25732;DHT22;13585;50.864;4.406;2023-06-24T08:46:26;29.20;44.90
25732;DHT22;13585;50.864;4.406;2023-06-24T08:51:51;29.20;44.50
25732;DHT22;13585;50.864;4.406;2023-06-24T08:54:20;29.20;44.30
25732;DHT22;13585;50.864;4.406;2023-06-24T08:56:46;29.30;44.40
25732;DHT22;13585;50.864;4.406;2023-06-24T08:59:12;29.20;44.30
25732;DHT22;13585;50.864;4.406;2023-06-24T09:01:38;29.20;44.30
25732;DHT22;13585;50.864;4.406;2023-06-24T09:04:04;29.30;44.20
25732;DHT22;13585;50.864;4.406;2023-06-24T09:06:31;29.20;44.20
25732;DHT22;13585;50.864;4.406;2023-06-24T09:08:57;29.30;44.20
25732;DHT22;13585;50.864;4.406;2023-06-24T09:11:25;29.30;44.00
25732;DHT22;13585;50.864;4.406;2023-06-24T09:13:57;29.30;43.70
25732;DHT22;13585;50.864;4.406;2023-06-24T09:16:26;29.20;43.60
25732;DHT22;13585;50.864;4.406;2023-06-24T09:18:53;29.30;43.50
25732;DHT22;13585;50.864;4.406;2023-06-24T09:21:25;29.30;43.50
25732;DHT22;13585;50.864;4.406;2023-06-24T09:23:55;29.20;43.30
25732;DHT22;13585;50.864;4.406;2023-06-24T09:26:24;29.20;43.30
25732;DHT22;13585;50.864;4.406;2023-06-24T09:28:50;29.20;43.20
25732;DHT22;13585;50.864;4.406;2023-06-24T09:31:17;29.30;42.90
25732;DHT22;13585;50.864;4.406;2023-06-24T09:33:43;29.30;42.90
25732;DHT22;13585;50.864;4.406;2023-06-24T09:36:13;29.30;42.90
25732;DHT22;13585;50.864;4.406;2023-06-24T09:38:44;29.30;43.60
25732;DHT22;13585;50.864;4.406;2023-06-24T09:41:13;29.30;42.70
25732;DHT22;13585;50.864;4.406;2023-06-24T09:43:42;29.30;42.80
25732;DHT22;13585;50.864;4.406;2023-06-24T09:46:09;29.40;42.90
25732;DHT22;13585;50.864;4.406;2023-06-24T09:48:34;29.30;43.00
25732;DHT22;13585;50.864;4.406;2023-06-24T09:51:02;29.30;43.10
25732;DHT22;13585;50.864;4.406;2023-06-24T09:53:31;29.30;43.80
25732;DHT22;13585;50.864;4.406;2023-06-24T09:55:59;29.30;43.20
25732;DHT22;13585;50.864;4.406;2023-06-24T09:58:27;29.30;43.30
25732;DHT22;13585;50.864;4.406;2023-06-24T10:00:55;29.30;43.30
25732;DHT22;13585;50.864;4.406;2023-06-24T10:03:21;29.30;43.40
25732;DHT22;13585;50.864;4.406;2023-06-24T10:05:47;29.30;43.30
25732;DHT22;13585;50.864;4.406;2023-06-24T10:08:14;29.30;43.30
25732;DHT22;13585;50.864;4.406;2023-06-24T10:10:40;29.30;43.30
25732;DHT22;13585;50.864;4.406;2023-06-24T10:13:05;29.30;42.90
25732;DHT22;13585;50.864;4.406;2023-06-24T10:15:32;29.30;43.10
25732;DHT22;13585;50.864;4.406;2023-06-24T10:18:02;29.30;43.00
25732;DHT22;13585;50.864;4.406;2023-06-24T10:20:28;29.30;43.20
25732;DHT22;13585;50.864;4.406;2023-06-24T10:22:54;29.30;43.20
25732;DHT22;13585;50.864;4.406;2023-06-24T10:25:20;29.30;43.30
25732;DHT22;13585;50.864;4.406;2023-06-24T10:27:53;29.30;43.30
25732;DHT22;13585;50.864;4.406;2023-06-24T10:30:20;29.20;43.30
25732;DHT22;13585;50.864;4.406;2023-06-24T10:32:51;29.30;43.40
25732;DHT22;13585;50.864;4.406;2023-06-24T10:35:24;29.30;43.50
25732;DHT22;13585;50.864;4.406;2023-06-24T10:37:55;29.30;43.50
25732;DHT22;13585;50.864;4.406;2023-06-24T10:40:38;29.30;43.50
25732;DHT22;13585;50.864;4.406;2023-06-24T10:45:53;29.30;43.60
25732;DHT22;13585;50.864;4.406;2023-06-24T10:48:19;29.30;43.50
25732;DHT22;13585;50.864;4.406;2023-06-24T10:50:46;29.40;43.60
25732;DHT22;13585;50.864;4.406;2023-06-24T10:53:12;29.40;43.50
25732;DHT22;13585;50.864;4.406;2023-06-24T10:55:39;29.40;43.50
25732;DHT22;13585;50.864;4.406;2023-06-24T10:58:11;29.40;43.50
25732;DHT22;13585;50.864;4.406;2023-06-24T11:00:42;29.30;43.50
25732;DHT22;13585;50.864;4.406;2023-06-24T11:03:13;29.40;43.60
25732;DHT22;13585;50.864;4.406;2023-06-24T11:05:44;29.40;43.60
25732;DHT22;13585;50.864;4.406;2023-06-24T11:08:10;29.40;43.60
25732;DHT22;13585;50.864;4.406;2023-06-24T11:10:46;29.40;43.60
25732;DHT22;13585;50.864;4.406;2023-06-24T11:13:13;29.40;43.70
25732;DHT22;13585;50.864;4.406;2023-06-24T11:15:40;29.40;43.60
25732;DHT22;13585;50.864;4.406;2023-06-24T11:18:10;29.40;43.70
25732;DHT22;13585;50.864;4.406;2023-06-24T11:20:42;29.50;43.60
25732;DHT22;13585;50.864;4.406;2023-06-24T11:23:11;29.50;43.50
25732;DHT22;13585;50.864;4.406;2023-06-24T11:25:41;29.40;43.60
25732;DHT22;13585;50.864;4.406;2023-06-24T11:28:31;29.40;43.70
25732;DHT22;13585;50.864;4.406;2023-06-24T11:31:06;29.40;43.70
25732;DHT22;13585;50.864;4.406;2023-06-24T11:33:32;29.40;43.70
25732;DHT22;13585;50.864;4.406;2023-06-24T11:35:59;29.40;43.60
25732;DHT22;13585;50.864;4.406;2023-06-24T11:38:24;29.40;43.60
25732;DHT22;13585;50.864;4.406;2023-06-24T11:41:03;29.40;43.70
25732;DHT22;13585;50.864;4.406;2023-06-24T11:43:35;29.40;43.60
25732;DHT22;13585;50.864;4.406;2023-06-24T11:46:00;29.40;43.60
25732;DHT22;13585;50.864;4.406;2023-06-24T11:48:28;29.40;43.60
25732;DHT22;13585;50.864;4.406;2023-06-24T11:50:54;29.40;43.60
25732;DHT22;13585;50.864;4.406;2023-06-24T11:53:29;29.40;43.60
25732;DHT22;13585;50.864;4.406;2023-06-24T11:55:56;29.40;43.60
25732;DHT22;13585;50.864;4.406;2023-06-24T11:58:22;29.40;43.60
25732;DHT22;13585;50.864;4.406;2023-06-24T12:00:50;29.40;43.40
25732;DHT22;13585;50.864;4.406;2023-06-24T12:03:17;29.50;43.50
25732;DHT22;13585;50.864;4.406;2023-06-24T12:05:47;29.50;43.50
25732;DHT22;13585;50.864;4.406;2023-06-24T12:08:15;29.40;43.50
25732;DHT22;13585;50.864;4.406;2023-06-24T12:10:45;29.40;43.50
25732;DHT22;13585;50.864;4.406;2023-06-24T12:13:12;29.40;43.50
25732;DHT22;13585;50.864;4.406;2023-06-24T12:15:37;29.50;43.50
25732;DHT22;13585;50.864;4.406;2023-06-24T12:18:03;29.40;43.50
25732;DHT22;13585;50.864;4.406;2023-06-24T12:20:30;29.50;43.60
25732;DHT22;13585;50.864;4.406;2023-06-24T12:22:56;29.40;43.50
25732;DHT22;13585;50.864;4.406;2023-06-24T12:25:21;29.50;43.50
25732;DHT22;13585;50.864;4.406;2023-06-24T12:27:47;29.50;43.60
25732;DHT22;13585;50.864;4.406;2023-06-24T12:30:13;29.40;43.50
25732;DHT22;13585;50.864;4.406;2023-06-24T12:32:39;29.50;43.50
25732;DHT22;13585;50.864;4.406;2023-06-24T12:35:05;29.50;43.60
25732;DHT22;13585;50.864;4.406;2023-06-24T12:38:00;29.50;43.50
25732;DHT22;13585;50.864;4.406;2023-06-24T12:40:27;29.40;43.50
25732;DHT22;13585;50.864;4.406;2023-06-24T12:42:53;29.50;43.20
25732;DHT22;13585;50.864;4.406;2023-06-24T12:45:19;29.40;43.30
25732;DHT22;13585;50.864;4.406;2023-06-24T12:47:45;29.40;43.30
25732;DHT22;13585;50.864;4.406;2023-06-24T12:50:11;29.50;43.20
25732;DHT22;13585;50.864;4.406;2023-06-24T12:52:37;29.50;43.20
25732;DHT22;13585;50.864;4.406;2023-06-24T12:55:05;29.50;43.30
25732;DHT22;13585;50.864;4.406;2023-06-24T12:57:31;29.50;43.20
25732;DHT22;13585;50.864;4.406;2023-06-24T12:59:57;29.40;43.20
25732;DHT22;13585;50.864;4.406;2023-06-24T13:02:22;29.50;43.20
25732;DHT22;13585;50.864;4.406;2023-06-24T13:04:48;29.50;43.30
25732;DHT22;13585;50.864;4.406;2023-06-24T13:07:14;29.50;43.20
25732;DHT22;13585;50.864;4.406;2023-06-24T13:09:39;29.40;43.10
25732;DHT22;13585;50.864;4.406;2023-06-24T13:12:05;29.40;43.10
25732;DHT22;13585;50.864;4.406;2023-06-24T13:14:31;29.50;43.10
25732;DHT22;13585;50.864;4.406;2023-06-24T13:16:56;29.50;43.10
25732;DHT22;13585;50.864;4.406;2023-06-24T13:19:23;29.50;43.00
25732;DHT22;13585;50.864;4.406;2023-06-24T13:21:49;29.40;42.90
25732;DHT22;13585;50.864;4.406;2023-06-24T13:24:15;29.50;42.70
25732;DHT22;13585;50.864;4.406;2023-06-24T13:26:44;29.50;42.60
25732;DHT22;13585;50.864;4.406;2023-06-24T13:29:10;29.50;42.30
25732;DHT22;13585;50.864;4.406;2023-06-24T13:31:36;29.50;42.40
25732;DHT22;13585;50.864;4.406;2023-06-24T13:34:01;29.50;42.30
25732;DHT22;13585;50.864;4.406;2023-06-24T13:36:33;29.50;42.20
25732;DHT22;13585;50.864;4.406;2023-06-24T13:39:01;29.50;42.30
25732;DHT22;13585;50.864;4.406;2023-06-24T13:41:26;29.50;42.30
25732;DHT22;13585;50.864;4.406;2023-06-24T13:43:56;29.50;42.30
25732;DHT22;13585;50.864;4.406;2023-06-24T13:46:22;29.40;42.30
25732;DHT22;13585;50.864;4.406;2023-06-24T13:48:48;29.40;42.30
25732;DHT22;13585;50.864;4.406;2023-06-24T13:51:18;29.50;42.50
25732;DHT22;13585;50.864;4.406;2023-06-24T13:53:53;29.50;42.40
25732;DHT22;13585;50.864;4.406;2023-06-24T13:56:23;29.40;42.40
25732;DHT22;13585;50.864;4.406;2023-06-24T13:58:53;29.40;42.40
25732;DHT22;13585;50.864;4.406;2023-06-24T14:01:19;29.50;42.40
25732;DHT22;13585;50.864;4.406;2023-06-24T14:03:48;29.50;42.50
25732;DHT22;13585;50.864;4.406;2023-06-24T14:06:16;29.50;42.50
25732;DHT22;13585;50.864;4.406;2023-06-24T14:08:42;29.50;42.50
25732;DHT22;13585;50.864;4.406;2023-06-24T14:11:08;29.50;42.50
25732;DHT22;13585;50.864;4.406;2023-06-24T14:13:34;29.50;42.50
25732;DHT22;13585;50.864;4.406;2023-06-24T14:16:02;29.50;42.60
25732;DHT22;13585;50.864;4.406;2023-06-24T14:18:28;29.50;42.50
25732;DHT22;13585;50.864;4.406;2023-06-24T14:20:57;29.50;42.50
25732;DHT22;13585;50.864;4.406;2023-06-24T14:23:23;29.50;42.50
25732;DHT22;13585;50.864;4.406;2023-06-24T14:25:51;29.50;42.50
25732;DHT22;13585;50.864;4.406;2023-06-24T14:28:20;29.50;42.50
25732;DHT22;13585;50.864;4.406;2023-06-24T14:30:46;29.50;42.40
25732;DHT22;13585;50.864;4.406;2023-06-24T14:33:12;29.60;42.30
25732;DHT22;13585;50.864;4.406;2023-06-24T14:35:38;29.60;42.30
25732;DHT22;13585;50.864;4.406;2023-06-24T14:38:04;29.60;42.20
25732;DHT22;13585;50.864;4.406;2023-06-24T14:40:31;29.60;42.20
25732;DHT22;13585;50.864;4.406;2023-06-24T14:42:57;29.60;42.10
25732;DHT22;13585;50.864;4.406;2023-06-24T14:45:23;29.60;42.00
25732;DHT22;13585;50.864;4.406;2023-06-24T14:47:51;29.60;42.00
25732;DHT22;13585;50.864;4.406;2023-06-24T14:50:17;29.60;41.90
25732;DHT22;13585;50.864;4.406;2023-06-24T14:52:43;29.60;42.00
25732;DHT22;13585;50.864;4.406;2023-06-24T14:55:09;29.70;41.70
25732;DHT22;13585;50.864;4.406;2023-06-24T14:57:35;29.60;41.80
25732;DHT22;13585;50.864;4.406;2023-06-24T15:00:05;29.70;41.90
25732;DHT22;13585;50.864;4.406;2023-06-24T15:02:31;29.70;41.90
25732;DHT22;13585;50.864;4.406;2023-06-24T15:04:57;29.60;41.80
25732;DHT22;13585;50.864;4.406;2023-06-24T15:07:23;29.60;41.80
25732;DHT22;13585;50.864;4.406;2023-06-24T15:09:49;29.70;41.90
25732;DHT22;13585;50.864;4.406;2023-06-24T15:12:15;29.70;41.90
25732;DHT22;13585;50.864;4.406;2023-06-24T15:14:40;29.70;41.90
25732;DHT22;13585;50.864;4.406;2023-06-24T15:17:06;29.70;41.90
25732;DHT22;13585;50.864;4.406;2023-06-24T15:19:32;29.70;41.90
25732;DHT22;13585;50.864;4.406;2023-06-24T15:21:57;29.70;41.90
25732;DHT22;13585;50.864;4.406;2023-06-24T15:24:23;29.70;42.00
25732;DHT22;13585;50.864;4.406;2023-06-24T15:26:48;29.70;42.00
25732;DHT22;13585;50.864;4.406;2023-06-24T15:29:14;29.70;42.10
25732;DHT22;13585;50.864;4.406;2023-06-24T15:31:39;29.70;42.00
25732;DHT22;13585;50.864;4.406;2023-06-24T15:34:05;29.70;42.00
25732;DHT22;13585;50.864;4.406;2023-06-24T15:36:31;29.80;42.10
25732;DHT22;13585;50.864;4.406;2023-06-24T15:38:56;29.80;42.10
25732;DHT22;13585;50.864;4.406;2023-06-24T15:41:23;29.80;42.10
25732;DHT22;13585;50.864;4.406;2023-06-24T15:43:48;29.90;42.20
25732;DHT22;13585;50.864;4.406;2023-06-24T15:46:14;29.80;42.10
25732;DHT22;13585;50.864;4.406;2023-06-24T15:48:42;29.90;42.10
25732;DHT22;13585;50.864;4.406;2023-06-24T15:51:08;29.70;42.00